Time;durP1;ratioP1;P1;durP2;ratioP2;P2;SDS_P1;SDS_P2;PMS_P1;PMS_P2;Temp;Humidity;BMP_temperature;BMP_pressure;BME280_temperature;BME280_humidity;BME280_pressure;Samples;Min_cycle;Max_cycle;Signal;HPM_P1;HPM_P2
2022/05/03 00:04:10;;;;;;;4.75;2.47;;;;;;;9.38;82.25;99201.50;8192130;28;20841;-71
2022/05/03 00:08:32;;;;;;;2.88;2.67;;;;;;;9.33;82.06;99198.03;8221767;28;20054;-71
2022/05/03 00:12:39;;;;;;;3.13;2.83;;;;;;;9.28;82.35;99191.16;8224082;28;20058;-71
2022/05/03 00:16:41;;;;;;;6.22;2.55;;;;;;;9.18;82.87;99185.16;8218864;28;20343;-71
2022/05/03 00:20:46;;;;;;;3.97;2.78;;;;;;;9.15;83.24;99186.84;8207504;28;20050;-71
2022/05/03 00:24:48;;;;;;;2.78;2.58;;;;;;;9.11;83.33;99182.56;8206829;28;20796;-71
2022/05/03 00:28:51;;;;;;;3.40;3.08;;;;;;;9.04;82.86;99179.13;8223480;28;20057;-71
2022/05/03 00:32:54;;;;;;;2.65;2.45;;;;;;;9.03;82.90;99178.28;8220884;28;20082;-71
2022/05/03 00:36:55;;;;;;;3.25;2.47;;;;;;;8.99;83.16;99168.78;8223728;28;20056;-71
2022/05/03 00:41:00;;;;;;;2.85;2.58;;;;;;;8.96;82.85;99173.09;8223820;28;20073;-71
2022/05/03 00:45:45;;;;;;;2.85;2.65;;;;;;;8.86;82.84;99166.22;8222154;28;20137;-71
2022/05/03 00:50:03;;;;;;;2.92;2.65;;;;;;;8.74;83.14;99164.47;8221278;28;20079;-71
2022/05/03 00:54:27;;;;;;;2.53;2.40;;;;;;;8.66;83.30;99169.69;8218414;28;20077;-71
2022/05/03 00:58:44;;;;;;;3.30;3.10;;;;;;;8.60;83.77;99168.81;8223096;28;20069;-71
2022/05/03 01:03:09;;;;;;;3.60;3.10;;;;;;;8.51;83.59;99161.91;8214654;28;20046;-72
2022/05/03 01:07:34;;;;;;;2.88;2.63;;;;;;;8.43;83.96;99166.22;8205941;28;20611;-71
2022/05/03 01:11:53;;;;;;;2.97;2.78;;;;;;;8.40;84.15;99166.22;8237720;28;20484;-71
2022/05/03 01:16:21;;;;;;;3.20;3.00;;;;;;;8.35;84.12;99165.34;8216868;28;20101;-71
2022/05/03 01:20:31;;;;;;;4.43;3.00;;;;;;;8.25;84.28;99160.97;8204224;28;20105;-71
2022/05/03 01:24:48;;;;;;;4.55;3.15;;;;;;;8.16;84.86;99159.25;8221346;28;20075;-71
2022/05/03 01:29:20;;;;;;;3.40;3.10;;;;;;;8.05;84.60;99161.81;8204697;28;20077;-72
2022/05/03 01:33:32;;;;;;;3.95;2.83;;;;;;;7.97;85.12;99160.94;8222824;28;20050;-71
2022/05/03 01:37:55;;;;;;;3.38;3.08;;;;;;;7.91;84.85;99153.19;8255233;28;20078;-71
2022/05/03 01:42:00;;;;;;;;;;;;;;;7.89;85.15;99154.88;8252169;28;20038;-71
2022/05/03 01:46:15;;;;;;;3.72;2.95;;;;;;;7.85;85.18;99155.75;8252775;28;19984;-71
2022/05/03 01:50:30;;;;;;;2.67;2.47;;;;;;;7.74;85.13;99152.28;8254758;28;20050;-71
2022/05/03 01:54:50;;;;;;;3.13;2.92;;;;;;;7.68;85.19;99152.25;8254680;28;20435;-71
2022/05/03 01:59:16;;;;;;;3.30;3.00;;;;;;;7.65;85.47;99150.50;8260843;28;20093;-71
2022/05/03 02:03:34;;;;;;;3.40;3.10;;;;;;;7.61;85.84;99156.53;8231920;28;20068;-71
2022/05/03 02:07:45;;;;;;;3.95;3.05;;;;;;;7.55;86.13;99154.81;8230723;28;20047;-71
2022/05/03 02:12:13;;;;;;;4.95;3.92;;;;;;;7.49;86.00;99156.47;8227335;28;20070;-70
2022/05/03 02:16:15;;;;;;;3.63;3.03;;;;;;;7.44;85.81;99158.19;8224927;28;20054;-70
2022/05/03 02:20:57;;;;;;;6.18;3.55;;;;;;;7.38;86.33;99169.38;8227290;28;20056;-70
2022/05/03 02:25:20;;;;;;;3.35;3.10;;;;;;;7.34;86.37;99162.44;8226706;28;20038;-70
2022/05/03 02:29:30;;;;;;;3.47;3.20;;;;;;;7.31;86.10;99161.56;8226982;28;20058;-70
2022/05/03 02:33:38;;;;;;;3.55;2.97;;;;;;;7.22;86.07;99154.66;8231547;28;20652;-70
2022/05/03 02:37:57;;;;;;;5.55;3.92;;;;;;;7.14;86.35;99157.16;8255717;28;20050;-70
2022/05/03 02:42:01;;;;;;;4.32;2.97;;;;;;;7.09;86.31;99161.47;8255045;28;20046;-69
2022/05/03 02:46:28;;;;;;;3.72;3.50;;;;;;;6.99;86.65;99164.81;8252219;28;20070;-69
2022/05/03 02:50:40;;;;;;;4.10;3.37;;;;;;;6.90;86.83;99157.91;8245847;28;20058;-71
2022/05/03 02:55:00;;;;;;;3.47;3.20;;;;;;;6.83;86.73;99161.31;8238112;28;20047;-70
2022/05/03 02:59:10;;;;;;;4.13;3.35;;;;;;;6.80;87.21;99161.25;8236280;28;20144;-70
2022/05/03 03:03:31;;;;;;;4.85;3.20;;;;;;;6.80;87.29;99158.69;8233849;28;20101;-71
2022/05/03 03:07:51;;;;;;;5.00;3.60;;;;;;;6.78;87.03;99156.94;8228654;28;20072;-71
2022/05/03 03:11:58;;;;;;;4.60;3.60;;;;;;;6.78;87.44;99147.50;8210529;28;20947;-70
2022/05/03 03:16:00;;;;;;;3.72;3.42;;;;;;;6.77;87.00;99150.06;8224122;28;20058;-71
2022/05/03 03:20:01;;;;;;;4.45;3.33;;;;;;;6.73;86.82;99145.75;8220857;28;20075;-71
2022/05/03 03:24:08;;;;;;;5.45;3.13;;;;;;;6.65;86.75;99149.13;8226752;28;20070;-70
2022/05/03 03:28:13;;;;;;;3.60;3.03;;;;;;;6.59;86.56;99150.78;8227364;28;20466;-71
2022/05/03 03:32:17;;;;;;;3.70;3.27;;;;;;;6.56;86.85;99154.22;8206806;28;20070;-70
2022/05/03 03:36:22;;;;;;;3.20;2.90;;;;;;;6.53;87.13;99145.59;8227277;28;20061;-70
2022/05/03 03:40:25;;;;;;;3.47;3.17;;;;;;;6.46;86.95;99149.81;8225551;28;20575;-71
2022/05/03 03:44:27;;;;;;;5.00;3.63;;;;;;;6.45;87.33;99148.09;8228995;28;20138;-71
2022/05/03 03:48:28;;;;;;;3.83;3.53;;;;;;;6.45;87.32;99154.97;8226227;28;20085;-70
2022/05/03 03:52:30;;;;;;;5.47;3.47;;;;;;;6.40;87.06;99154.06;8226273;28;20074;-70
2022/05/03 03:56:32;;;;;;;4.15;3.33;;;;;;;6.33;87.27;99156.63;8224748;28;20499;-70
2022/05/03 04:00:35;;;;;;;4.45;3.80;;;;;;;6.28;86.99;99155.72;8221355;28;20145;-70
2022/05/03 04:04:37;;;;;;;3.60;3.30;;;;;;;6.29;87.70;99148.84;8208183;28;20042;-70
2022/05/03 04:08:39;;;;;;;3.75;3.42;;;;;;;6.25;87.25;99147.06;8226335;28;20145;-71
2022/05/03 04:12:42;;;;;;;3.47;3.17;;;;;;;6.25;87.60;99149.66;8221641;28;20141;-71
2022/05/03 04:16:43;;;;;;;3.17;2.95;;;;;;;6.23;87.54;99151.34;8207810;28;20055;-71
2022/05/03 04:20:45;;;;;;;5.67;3.20;;;;;;;6.24;87.56;99153.94;8205317;28;20043;-72
2022/05/03 04:24:46;;;;;;;4.60;3.37;;;;;;;6.23;87.85;99149.63;8224420;28;20073;-71
2022/05/03 04:28:48;;;;;;;4.23;3.80;;;;;;;6.11;87.73;99144.38;8225879;28;20883;-71
2022/05/03 04:32:49;;;;;;;3.80;3.50;;;;;;;6.09;88.14;99153.78;8221853;28;20146;-71
2022/05/03 04:36:51;;;;;;;4.67;3.73;;;;;;;6.11;88.33;99152.13;8196561;28;20150;-70
2022/05/03 04:40:59;;;;;;;3.80;3.47;;;;;;;6.19;88.65;99159.91;8225778;28;20050;-70
2022/05/03 04:45:02;;;;;;;3.73;3.10;;;;;;;6.17;88.55;99157.31;8225210;28;20043;-71
2022/05/03 04:49:03;;;;;;;5.80;3.50;;;;;;;6.16;88.22;99162.47;8223732;28;20089;-71
2022/05/03 04:53:11;;;;;;;3.73;3.43;;;;;;;6.18;88.71;99153.91;8221501;28;20047;-71
2022/05/03 04:57:14;;;;;;;4.90;4.00;;;;;;;6.31;88.64;99162.63;8225079;28;20054;-71
2022/05/03 05:01:16;;;;;;;3.80;3.50;;;;;;;6.38;89.04;99159.22;8219608;28;20051;-71
2022/05/03 05:05:18;;;;;;;3.90;3.60;;;;;;;6.46;89.07;99164.44;8207421;28;20109;-71
2022/05/03 05:09:20;;;;;;;3.43;3.13;;;;;;;6.56;88.56;99169.69;8227045;28;20046;-71
2022/05/03 05:13:21;;;;;;;3.38;3.08;;;;;;;6.59;88.45;99171.44;8224955;28;20098;-70
2022/05/03 05:17:23;;;;;;;4.67;3.90;;;;;;;6.73;88.81;99176.69;8229513;28;20079;-71
2022/05/03 05:21:24;;;;;;;4.03;3.65;;;;;;;6.88;88.55;99179.41;8242063;28;20054;-71
2022/05/03 05:25:26;;;;;;;4.87;3.13;;;;;;;7.00;88.37;99182.03;8240147;28;20415;-71
2022/05/03 05:29:27;;;;;;;4.10;3.72;;;;;;;7.20;88.20;99190.78;8224002;28;20627;-71
2022/05/03 05:33:29;;;;;;;4.20;3.80;;;;;;;7.42;87.17;99191.75;8233046;28;20056;-71
2022/05/03 05:37:31;;;;;;;4.18;3.55;;;;;;;7.41;86.71;99191.75;8255746;28;20346;-71
2022/05/03 05:41:33;;;;;;;3.45;3.15;;;;;;;7.43;87.21;99193.50;8254747;28;20062;-71
2022/05/03 05:45:34;;;;;;;3.27;3.03;;;;;;;7.53;87.23;99194.38;8251287;28;20343;-71
2022/05/03 05:49:36;;;;;;;3.60;3.40;;;;;;;7.55;86.81;99195.28;8254607;28;20042;-71
2022/05/03 05:53:37;;;;;;;4.55;3.13;;;;;;;7.67;86.38;99197.03;8254966;28;20048;-71
2022/05/03 05:57:39;;;;;;;4.07;3.67;;;;;;;7.71;86.25;99204.78;8250460;28;20058;-71
2022/05/03 06:01:41;;;;;;;4.00;3.40;;;;;;;7.75;86.18;99206.56;8245569;28;20064;-71
2022/05/03 06:05:43;;;;;;;3.65;3.35;;;;;;;7.80;86.63;99216.91;8251706;28;20052;-70
2022/05/03 06:09:45;;;;;;;5.95;3.38;;;;;;;7.89;86.60;99212.63;8255819;28;20092;-71
2022/05/03 06:13:47;;;;;;;3.75;3.45;;;;;;;7.99;86.35;99217.84;8253219;28;20455;-71
2022/05/03 06:17:49;;;;;;;6.15;3.78;;;;;;;8.23;85.83;99219.59;8231365;28;20069;-71
2022/05/03 06:21:51;;;;;;;4.13;3.57;;;;;;;8.54;84.59;99218.84;8222062;28;20760;-71
2022/05/03 06:25:52;;;;;;;5.57;3.65;;;;;;;9.18;83.61;99217.97;8230432;28;20081;-71
2022/05/03 06:29:54;;;;;;;6.20;3.50;;;;;;;10.06;80.54;99222.00;8218877;28;20043;-71
2022/05/03 06:33:56;;;;;;;3.58;3.15;;;;;;;10.38;79.06;99216.63;8212060;28;20089;-71
2022/05/03 06:37:57;;;;;;;3.40;3.20;;;;;;;10.58;78.71;99222.53;8223820;28;20125;-72
2022/05/03 06:41:59;;;;;;;4.65;3.20;;;;;;;11.31;75.79;99218.44;8219283;28;20138;-72
2022/05/03 06:46:00;;;;;;;4.55;3.55;;;;;;;11.44;75.11;99213.09;8216040;28;20169;-71
2022/05/03 06:50:02;;;;;;;4.72;3.33;;;;;;;12.13;73.16;99217.50;8221369;28;20332;-73
2022/05/03 06:54:04;;;;;;;5.80;3.83;;;;;;;12.67;71.67;99220.19;8221543;28;20035;-72
2022/05/03 06:58:05;;;;;;;4.90;4.27;;;;;;;13.17;70.63;99215.91;8221220;28;20042;-73
2022/05/03 07:02:07;;;;;;;6.23;4.20;;;;;;;13.25;69.74;99221.84;8218553;28;20141;-72
2022/05/03 07:06:09;;;;;;;4.88;3.95;;;;;;;13.77;68.85;99218.25;8232129;28;20039;-71
2022/05/03 07:10:11;;;;;;;8.50;4.18;;;;;;;14.43;67.27;99215.09;8219217;28;20149;-71
2022/05/03 07:14:12;;;;;;;6.05;4.28;;;;;;;15.04;65.83;99214.50;8220024;28;20070;-71
2022/05/03 07:22:46;;;;;;;6.28;3.97;;;;;;;16.26;62.82;99219.00;8246378;28;20402;-72
2022/05/03 07:26:48;;;;;;;7.05;4.05;;;;;;;16.82;60.13;99208.53;8262738;28;20093;-72
2022/05/03 07:30:49;;;;;;;5.70;3.92;;;;;;;17.32;57.01;99211.22;8248011;28;20062;-72
2022/05/03 07:34:52;;;;;;;7.35;4.43;;;;;;;17.45;55.43;99204.63;8205108;28;20434;-72
2022/05/03 07:38:54;;;;;;;7.13;3.78;;;;;;;17.35;55.62;99218.13;8189530;28;20047;-71
2022/05/03 07:42:55;;;;;;;5.40;3.63;;;;;;;16.96;56.36;99215.94;8226587;28;20050;-73
2022/05/03 07:46:57;;;;;;;6.65;3.88;;;;;;;17.26;56.22;99218.47;8217266;28;20423;-71
2022/05/03 07:50:59;;;;;;;6.38;4.03;;;;;;;17.68;54.15;99216.97;8211009;28;20074;-71
2022/05/03 07:55:02;;;;;;;5.50;4.03;;;;;;;18.22;54.61;99226.34;8210190;28;20343;-71
2022/05/03 07:59:03;;;;;;;5.35;4.30;;;;;;;18.43;52.12;99222.88;8190469;28;20070;-72
2022/05/03 08:03:05;;;;;;;3.60;3.30;;;;;;;18.41;53.26;99218.59;8198606;28;20059;-70
2022/05/03 08:07:07;;;;;;;5.40;3.40;;;;;;;18.91;53.31;99221.88;8225158;28;20166;-72
2022/05/03 08:11:08;;;;;;;5.68;3.75;;;;;;;19.39;51.44;99223.38;8225967;28;20507;-71
2022/05/03 08:15:10;;;;;;;6.97;3.45;;;;;;;19.78;50.21;99222.59;8222694;28;20064;-71
2022/05/03 08:19:11;;;;;;;4.47;3.63;;;;;;;19.96;49.49;99226.19;8176368;29;20043;-71
2022/05/03 08:23:13;;;;;;;4.18;3.45;;;;;;;19.60;48.00;99226.91;8177322;29;20047;-71
2022/05/03 08:27:15;;;;;;;6.03;3.50;;;;;;;19.95;49.97;99232.38;8186998;28;20392;-71
2022/05/03 08:31:16;;;;;;;4.35;3.42;;;;;;;20.55;49.48;99223.44;8187765;28;20458;-71
2022/05/03 08:35:21;;;;;;;7.05;3.78;;;;;;;21.00;47.65;99225.59;8225700;28;20634;-71
2022/05/03 08:43:43;;;;;;;5.90;2.95;;;;;;;21.42;44.66;99219.13;8225921;28;20057;-71
2022/05/03 08:47:46;;;;;;;10.13;3.47;;;;;;;21.67;45.00;99222.19;8218374;28;20089;-71
2022/05/03 08:51:50;;;;;;;7.20;3.78;;;;;;;21.85;44.23;99227.44;8224460;28;20047;-71
2022/05/03 08:55:52;;;;;;;10.20;3.90;;;;;;;21.92;43.95;99227.06;8223171;28;20443;-71
2022/05/03 08:59:54;;;;;;;6.43;3.25;;;;;;;22.07;44.97;99228.03;8224154;28;20042;-72
2022/05/03 09:03:57;;;;;;;4.88;3.35;;;;;;;21.76;42.82;99233.25;8219923;28;20097;-71
2022/05/03 09:08:00;;;;;;;12.65;3.90;;;;;;;21.41;43.55;99228.00;8224780;28;20042;-71
2022/05/03 09:12:01;;;;;;;4.25;2.85;;;;;;;21.61;45.46;99225.16;8224082;28;20058;-71
2022/05/03 09:16:10;;;;;;;5.60;3.00;;;;;;;22.12;44.63;99226.03;8220614;28;20528;-71
2022/05/03 09:24:55;;;;;;;4.93;2.78;;;;;;;22.59;43.27;99228.66;8224081;28;20053;-71
2022/05/03 09:29:11;;;;;;;9.65;3.92;;;;;;;22.75;41.64;99214.56;8206668;28;20047;-71
2022/05/03 09:33:19;;;;;;;5.35;3.22;;;;;;;22.53;41.18;99215.78;8216894;28;20057;-71
2022/05/03 09:37:38;;;;;;;7.72;3.63;;;;;;;22.82;42.90;99222.13;8192178;28;20066;-71
2022/05/03 09:41:39;;;;;;;6.20;3.70;;;;;;;23.00;41.32;99216.72;8190923;28;20066;-71
2022/05/03 09:45:41;;;;;;;4.95;3.22;;;;;;;22.96;39.99;99218.66;8188758;28;20073;-71
2022/05/03 09:49:43;;;;;;;9.88;4.97;;;;;;;22.94;39.98;99212.59;8221501;28;20469;-71
2022/05/03 09:53:58;;;;;;;4.82;3.10;;;;;;;23.22;41.00;99211.84;8221323;28;20074;-71
2022/05/03 09:58:02;;;;;;;6.60;2.97;;;;;;;23.78;40.95;99212.94;8220115;28;20408;-71
2022/05/03 10:02:04;;;;;;;4.13;2.40;;;;;;;23.99;38.27;99208.09;8221805;28;20054;-71
2022/05/03 10:06:06;;;;;;;4.57;2.33;;;;;;;24.05;38.17;99211.19;8223228;28;20054;-71
2022/05/03 10:10:10;;;;;;;3.00;1.92;;;;;;;24.32;36.49;99216.63;8230744;28;20084;-71
2022/05/03 10:14:11;;;;;;;2.35;1.98;;;;;;;24.58;36.49;99208.78;8225762;28;20121;-72
2022/05/03 10:22:46;;;;;;;3.05;1.75;;;;;;;24.56;34.55;99202.72;8191591;28;20485;-72
2022/05/03 10:27:01;;;;;;;2.08;1.67;;;;;;;24.41;33.79;99197.44;8200095;28;20058;-71
2022/05/03 10:31:13;;;;;;;2.78;1.70;;;;;;;23.74;35.10;99191.06;8203747;28;20053;-71
2022/05/03 10:35:32;;;;;;;3.80;1.60;;;;;;;23.75;36.93;99190.09;8218998;28;20053;-71
2022/05/03 10:39:33;;;;;;;3.60;1.77;;;;;;;23.23;35.58;99192.38;8231400;28;20738;-71
2022/05/03 10:43:37;;;;;;;3.38;1.85;;;;;;;23.03;37.24;99184.75;8213158;28;20082;-71
2022/05/03 10:47:48;;;;;;;2.47;1.77;;;;;;;23.04;36.42;99181.16;8230062;28;20161;-71
2022/05/03 10:51:51;;;;;;;3.10;1.85;;;;;;;23.03;36.57;99177.66;8244174;28;20101;-71
2022/05/03 10:56:12;;;;;;;2.67;1.58;;;;;;;22.71;37.81;99176.84;8247273;28;20121;-71
2022/05/03 11:00:14;;;;;;;5.30;1.60;;;;;;;22.20;38.67;99170.03;8244812;28;20589;-71
2022/05/03 11:04:15;;;;;;;6.05;2.17;;;;;;;21.88;40.09;99162.03;8247181;28;20137;-71
2022/05/03 11:08:17;;;;;;;5.18;2.33;;;;;;;21.66;39.83;99162.34;8245812;28;20153;-71
2022/05/03 11:12:39;;;;;;;;;;;;;;;21.46;40.96;99164.34;8248946;28;20085;-71
2022/05/03 11:16:40;;;;;;;4.25;2.10;;;;;;;21.42;40.11;99153.94;8248950;28;19965;-71
2022/05/03 11:20:47;;;;;;;3.90;1.88;;;;;;;21.44;40.92;99153.88;8248637;28;20049;-71
2022/05/03 11:24:52;;;;;;;2.20;1.75;;;;;;;21.48;41.12;99150.13;8254205;28;20042;-71
2022/05/03 11:28:57;;;;;;;4.65;1.85;;;;;;;21.42;41.70;99146.03;8257089;28;20085;-71
2022/05/03 11:32:59;;;;;;;2.47;1.73;;;;;;;21.41;40.79;99146.09;8252101;28;20896;-72
2022/05/03 11:37:04;;;;;;;2.75;1.40;;;;;;;21.31;41.34;99140.44;8254301;28;20119;-72
2022/05/03 11:41:07;;;;;;;1.75;1.58;;;;;;;21.23;40.34;99132.03;8253654;28;20093;-72
2022/05/03 11:45:10;;;;;;;3.22;1.90;;;;;;;21.16;41.50;99130.63;8247848;28;20073;-71
2022/05/03 11:49:13;;;;;;;3.50;1.70;;;;;;;21.21;41.70;99133.06;8249948;28;20056;-72
2022/05/03 11:57:42;;;;;;;2.05;1.45;;;;;;;21.68;40.40;99122.63;8253681;28;20700;-72
2022/05/03 12:01:44;;;;;;;4.43;1.83;;;;;;;22.37;40.68;99116.19;8234401;28;20086;-72
2022/05/03 12:05:57;;;;;;;4.18;1.58;;;;;;;22.74;39.97;99120.22;8224726;28;20102;-72
2022/05/03 12:09:58;;;;;;;4.10;1.88;;;;;;;22.67;39.82;99125.03;8225322;28;20712;-72
2022/05/03 12:14:03;;;;;;;1.63;1.52;;;;;;;22.66;39.94;99117.19;8220771;28;20126;-72
2022/05/03 12:18:13;;;;;;;3.33;1.20;;;;;;;22.56;38.94;99120.34;8243353;28;20046;-72
2022/05/03 12:22:15;;;;;;;2.55;1.40;;;;;;;22.46;37.98;99120.97;8256183;28;20085;-72
2022/05/03 12:26:19;;;;;;;5.35;1.42;;;;;;;22.41;36.10;99120.34;8254790;28;20049;-72
2022/05/03 12:30:20;;;;;;;1.30;1.20;;;;;;;22.37;37.76;99111.75;8251319;28;20070;-72
2022/05/03 12:34:23;;;;;;;2.20;1.48;;;;;;;22.23;37.85;99115.19;8256085;28;20062;-72
2022/05/03 12:38:26;;;;;;;2.95;1.67;;;;;;;22.24;38.77;99105.44;8255737;28;20129;-72
2022/05/03 12:42:27;;;;;;;3.53;1.35;;;;;;;22.31;38.83;99105.03;8232805;28;20042;-72
2022/05/03 12:46:29;;;;;;;3.58;1.60;;;;;;;22.33;37.06;99104.09;8227948;28;20083;-72
2022/05/03 12:50:31;;;;;;;3.97;1.60;;;;;;;22.29;38.48;99098.97;8240698;28;20051;-72
2022/05/03 12:54:33;;;;;;;1.95;1.48;;;;;;;22.24;38.24;99101.00;8240517;28;20042;-72
2022/05/03 12:58:36;;;;;;;3.10;1.52;;;;;;;22.29;39.46;99100.78;8242895;28;20046;-73
2022/05/03 13:02:37;;;;;;;2.17;1.55;;;;;;;22.36;38.33;99101.25;8226042;28;20478;-72
2022/05/03 13:06:39;;;;;;;1.25;1.10;;;;;;;22.28;36.93;99094.63;8224703;28;20046;-72
2022/05/03 13:10:40;;;;;;;3.65;1.70;;;;;;;22.39;40.46;99096.63;8223677;28;20541;-72
2022/05/03 13:14:42;;;;;;;2.60;1.50;;;;;;;22.46;39.45;99095.38;8206435;28;20149;-72
2022/05/03 13:18:44;;;;;;;3.97;1.42;;;;;;;22.61;39.62;99083.88;8221503;28;20134;-72
2022/05/03 13:23:04;;;;;;;2.13;1.48;;;;;;;23.19;38.71;99082.25;8223209;28;20452;-72
2022/05/03 13:27:06;;;;;;;;;;;;;;;23.44;36.24;99078.91;8224607;28;20495;-72
2022/05/03 13:31:08;;;;;;;2.97;1.25;;;;;;;23.87;37.24;99079.75;8224103;28;20016;-72
2022/05/03 13:35:10;;;;;;;3.05;1.02;;;;;;;24.30;36.74;99061.94;8223430;28;20072;-72
2022/05/03 13:43:31;;;;;;;2.00;1.50;;;;;;;24.96;35.53;99055.72;8223368;28;20375;-72
2022/05/03 13:47:33;;;;;;;3.67;1.25;;;;;;;25.07;34.93;99062.94;8217894;28;20055;-72
2022/05/03 13:51:35;;;;;;;;;;;;;;;25.17;32.96;99058.72;8221058;28;20411;-73
2022/05/03 13:55:39;;;;;;;2.10;1.33;;;;;;;24.54;34.18;99067.41;8218713;28;20533;-72
2022/05/03 13:59:41;;;;;;;1.83;1.40;;;;;;;24.15;36.43;99065.56;8218563;28;20047;-73
2022/05/03 14:03:42;;;;;;;6.57;1.73;;;;;;;23.59;37.83;99055.94;8218801;28;20145;-72
2022/05/03 14:07:44;;;;;;;10.63;1.88;;;;;;;23.16;39.31;99053.25;8221986;28;20129;-72
2022/05/03 14:11:46;;;;;;;4.22;1.60;;;;;;;22.84;40.04;99058.72;8228083;28;20125;-72
2022/05/03 14:15:47;;;;;;;7.63;1.55;;;;;;;22.70;41.38;99061.31;8217423;28;20061;-72
2022/05/03 14:19:48;;;;;;;2.90;2.00;;;;;;;22.52;40.23;99052.66;8219432;28;20046;-72
2022/05/03 14:23:51;;;;;;;8.85;1.80;;;;;;;22.31;41.37;99053.91;8217867;28;20126;-72
2022/05/03 14:27:52;;;;;;;5.13;2.28;;;;;;;22.26;40.61;99053.31;8218692;28;20050;-72
2022/05/03 14:31:55;;;;;;;6.00;2.20;;;;;;;22.17;40.77;99059.13;8219658;28;20572;-71
2022/05/03 14:35:56;;;;;;;11.27;2.45;;;;;;;;;;8218428;28;20463;-71
2022/05/03 14:39:58;;;;;;;4.88;2.33;;;;;;;22.01;47.14;99052.03;8215305;28;20053;-71
2022/05/03 14:44:00;;;;;;;6.03;2.30;;;;;;;21.61;48.42;99048.13;8217092;28;20046;-71
2022/05/03 14:48:03;;;;;;;4.95;2.53;;;;;;;21.80;50.91;99055.88;8166115;29;20051;-71
2022/05/03 14:52:08;;;;;;;4.30;2.10;;;;;;;21.98;47.19;99056.66;8192364;28;20063;-71
2022/05/03 15:04:52;;;;;;;3.08;2.22;;;;;;;21.74;44.04;99098.53;8192598;29;20094;-71
2022/05/03 15:08:54;;;;;;;2.47;1.40;;;;;;;21.33;45.25;99106.88;8192843;29;20130;-71
2022/05/03 15:12:58;;;;;;;2.85;1.63;;;;;;;20.84;45.59;99103.25;8192488;29;20141;-71
2022/05/03 15:16:59;;;;;;;4.15;1.50;;;;;;;20.60;46.71;99107.13;8179870;28;20617;-71
2022/05/03 15:21:01;;;;;;;2.47;1.98;;;;;;;20.36;47.58;99115.28;8188957;29;20076;-71
2022/05/03 15:25:03;;;;;;;5.43;2.63;;;;;;;20.06;48.16;99109.69;8190067;28;20082;-71
2022/05/03 15:29:06;;;;;;;3.78;2.20;;;;;;;19.71;50.32;99119.25;8188041;29;20043;-70
2022/05/03 15:33:07;;;;;;;4.28;2.55;;;;;;;19.44;50.53;99104.69;8186513;28;20097;-70
2022/05/03 15:37:09;;;;;;;5.25;1.73;;;;;;;19.22;51.15;99091.63;8220277;28;20495;-71
2022/05/03 15:57:08;;;;;;;2.03;0.95;;;;;;;18.15;50.11;99111.88;8208905;28;20114;-71
2022/05/03 16:01:10;;;;;;;1.45;0.88;;;;;;;18.03;49.98;99104.47;8223568;28;20042;-71
2022/05/03 16:10:14;;;;;;;1.23;0.80;;;;;;;17.75;49.83;99104.66;8246232;28;20050;-71
2022/05/03 16:14:16;;;;;;;0.90;0.70;;;;;;;17.65;50.10;99108.53;8237638;28;20042;-71
2022/05/03 16:18:17;;;;;;;2.17;0.77;;;;;;;17.50;49.39;99105.56;8245507;28;20178;-71
2022/05/03 16:22:19;;;;;;;0.70;0.70;;;;;;;17.34;49.56;99114.06;8251704;28;20417;-71
2022/05/03 16:26:22;;;;;;;1.38;0.73;;;;;;;17.25;49.22;99110.00;8247170;28;20403;-71
2022/05/03 16:30:24;;;;;;;3.50;0.68;;;;;;;17.17;49.82;99104.16;8246918;28;20141;-71
2022/05/03 16:34:25;;;;;;;1.38;0.75;;;;;;;17.09;50.79;99111.47;8224076;28;20742;-71
2022/05/03 16:42:47;;;;;;;2.28;1.80;;;;;;;16.83;55.74;99109.72;8207188;28;20113;-71
2022/05/03 16:46:49;;;;;;;3.33;1.80;;;;;;;16.75;57.16;99103.91;8206620;28;20158;-71
2022/05/03 16:50:50;;;;;;;2.78;1.48;;;;;;;16.65;58.06;99111.19;8218960;28;20050;-71
2022/05/03 16:54:52;;;;;;;1.47;1.33;;;;;;;16.54;58.07;99105.47;8198934;28;20509;-70
2022/05/03 16:58:55;;;;;;;2.05;1.33;;;;;;;16.46;58.04;99096.97;8218350;28;20047;-71
2022/05/03 17:02:57;;;;;;;2.27;1.67;;;;;;;16.39;57.74;99095.47;8217847;28;20138;-71
2022/05/03 17:06:59;;;;;;;6.82;2.55;;;;;;;16.33;58.47;99101.75;8220284;28;20053;-71
2022/05/03 17:11:00;;;;;;;6.93;1.10;;;;;;;16.21;59.03;99097.78;8221114;28;20047;-71
2022/05/03 17:15:02;;;;;;;1.90;1.20;;;;;;;16.10;60.67;99101.63;8213500;28;20053;-71
2022/05/03 17:19:04;;;;;;;2.25;1.20;;;;;;;16.00;60.77;99101.94;8218222;28;21002;-70
2022/05/03 17:23:05;;;;;;;2.33;0.90;;;;;;;15.92;60.92;99110.91;8222619;28;20495;-70
2022/05/03 17:27:07;;;;;;;2.38;1.00;;;;;;;15.90;61.44;99120.59;8220248;28;20073;-70
2022/05/03 17:31:09;;;;;;;1.67;0.80;;;;;;;15.85;60.23;99112.88;8210368;28;20089;-70
2022/05/03 17:35:11;;;;;;;1.17;0.90;;;;;;;15.89;59.10;99122.34;8233746;28;20062;-71
2022/05/03 17:39:12;;;;;;;2.50;1.00;;;;;;;15.88;59.02;99122.38;8249482;28;20455;-71
2022/05/03 17:43:14;;;;;;;2.20;1.67;;;;;;;15.89;60.06;99137.19;8250483;28;20074;-71
2022/05/03 17:47:15;;;;;;;4.35;2.03;;;;;;;15.85;61.46;99140.81;8240968;28;20062;-71
2022/05/03 17:51:17;;;;;;;3.22;1.77;;;;;;;15.79;62.38;99133.13;8232559;28;20054;-70
2022/05/03 17:55:19;;;;;;;3.95;2.30;;;;;;;15.74;63.10;99137.66;8249215;28;20078;-70
2022/05/03 17:59:20;;;;;;;3.13;2.50;;;;;;;15.62;64.38;99133.66;8252035;28;20038;-70
2022/05/03 18:03:22;;;;;;;2.77;2.43;;;;;;;15.51;65.18;99135.66;8247027;28;20046;-70
2022/05/03 18:07:26;;;;;;;10.32;2.58;;;;;;;15.43;66.06;99141.97;8250899;28;20306;-71
2022/05/03 18:11:28;;;;;;;4.25;2.90;;;;;;;15.30;66.66;99139.75;8254706;28;20671;-71
2022/05/03 18:15:29;;;;;;;;;;;;;;;15.23;66.87;99140.78;8233468;28;20077;-71
2022/05/03 18:19:31;;;;;;;2.47;1.70;;;;;;;15.15;67.41;99155.84;8248483;28;19988;-71
2022/05/03 18:23:33;;;;;;;1.83;1.73;;;;;;;15.16;66.99;99154.94;8252266;28;20116;-71
2022/05/03 18:27:34;;;;;;;2.67;1.77;;;;;;;15.11;66.92;99152.47;8251079;28;20426;-71
2022/05/03 18:31:37;;;;;;;2.67;1.92;;;;;;;14.98;67.85;99157.16;8247402;28;20446;-71
2022/05/03 18:35:39;;;;;;;3.97;1.88;;;;;;;14.88;68.15;99153.03;8249661;28;20069;-70
2022/05/03 18:39:41;;;;;;;2.50;2.30;;;;;;;14.68;69.01;99150.09;8250159;28;20073;-70
2022/05/03 18:43:42;;;;;;;;;;;;;;;14.51;70.07;99153.09;8252065;28;20394;-71
2022/05/03 18:47:45;;;;;;;4.55;1.65;;;;;;;14.33;70.82;99154.38;8251194;28;20670;-71
2022/05/03 18:51:48;;;;;;;4.03;1.83;;;;;;;14.26;71.30;99157.16;8251307;28;20053;-71
2022/05/03 18:55:50;;;;;;;2.13;1.92;;;;;;;14.18;70.67;99154.72;8250059;28;20085;-70
2022/05/03 18:59:51;;;;;;;4.10;2.35;;;;;;;14.04;71.72;99169.84;8262618;28;20136;-70
2022/05/03 19:03:54;;;;;;;2.30;2.10;;;;;;;13.98;70.77;99168.22;8247964;28;20061;-71
2022/05/03 19:07:57;;;;;;;2.15;2.05;;;;;;;13.95;71.27;99183.94;8251500;28;20077;-70
2022/05/03 19:12:02;;;;;;;3.55;2.05;;;;;;;13.86;71.34;99187.63;8250173;28;20053;-70
2022/05/03 19:16:04;;;;;;;2.95;2.67;;;;;;;13.85;70.80;99177.22;8258606;28;20050;-71
2022/05/03 19:20:07;;;;;;;4.15;2.22;;;;;;;13.85;70.19;99179.84;8250561;28;20359;-70
2022/05/03 19:32:52;;;;;;;2.22;1.88;;;;;;;13.76;70.60;99190.44;8238587;28;20350;-70
2022/05/03 19:36:55;;;;;;;3.15;1.95;;;;;;;13.57;71.79;99195.19;8225193;28;20101;-70
2022/05/03 19:40:57;;;;;;;3.42;1.83;;;;;;;13.42;72.60;99201.53;8223902;28;20050;-70
2022/05/03 19:44:59;;;;;;;4.45;1.75;;;;;;;13.28;72.97;99200.94;8211573;28;20074;-70
2022/05/03 19:49:00;;;;;;;3.80;2.47;;;;;;;13.14;73.65;99205.53;8228923;28;20093;-71
2022/05/03 19:53:04;;;;;;;2.10;1.70;;;;;;;12.99;74.59;99210.13;8224133;28;20130;-70
2022/05/03 19:57:07;;;;;;;1.85;1.73;;;;;;;12.91;75.19;99218.94;8222411;28;20671;-70
2022/05/03 20:01:08;;;;;;;;;;;;;;;12.86;76.35;99225.97;8205025;28;20624;-71
2022/05/03 20:05:10;;;;;;;3.03;1.77;;;;;;;12.82;76.04;99222.56;8219953;28;19926;-70
2022/05/03 20:09:15;;;;;;;2.27;1.90;;;;;;;12.73;77.01;99234.88;8223292;28;20074;-70
2022/05/03 20:13:16;;;;;;;1.70;1.60;;;;;;;12.65;77.76;99246.28;8224720;28;20046;-70
2022/05/03 20:17:19;;;;;;;2.95;1.77;;;;;;;12.60;77.39;99245.50;8221208;28;20046;-71
2022/05/03 20:21:21;;;;;;;1.70;1.60;;;;;;;12.60;77.46;99252.44;8222938;28;20051;-70
2022/05/03 20:25:23;;;;;;;3.57;2.17;;;;;;;12.50;77.92;99262.13;8222976;28;20054;-70
2022/05/03 20:29:24;;;;;;;2.83;1.77;;;;;;;12.52;78.06;99262.09;8227147;28;20048;-70
2022/05/03 20:33:26;;;;;;;1.98;1.88;;;;;;;12.50;78.17;99258.66;8222827;28;20039;-71